createdAt,value
2018-05-27T00:00:19.657Z,35.37
2018-05-27T00:02:47.598Z,31.70
2018-05-27T00:05:15.509Z,32.70
2018-05-27T00:07:44.263Z,32.80
2018-05-27T00:10:12.200Z,33.60
2018-05-27T00:12:40.140Z,34.33
2018-05-27T00:15:08.068Z,33.43
2018-05-27T00:17:36.200Z,33.77
2018-05-27T00:20:04.097Z,33.67
2018-05-27T00:22:32.054Z,31.23
2018-05-27T00:24:59.967Z,34.93
2018-05-27T00:27:27.891Z,33.27
2018-05-27T00:29:55.826Z,33.27
2018-05-27T00:32:23.746Z,32.93
2018-05-27T00:34:51.708Z,33.50
2018-05-27T00:37:19.646Z,34.43
2018-05-27T00:39:47.991Z,31.33
2018-05-27T00:42:15.890Z,38.50
2018-05-27T00:44:43.808Z,36.37
2018-05-27T00:47:11.760Z,39.73
2018-05-27T00:49:39.671Z,37.63
2018-05-27T00:52:07.672Z,37.40
2018-05-27T00:54:35.571Z,37.30
2018-05-27T00:57:03.515Z,33.30
2018-05-27T00:59:31.449Z,36.93
2018-05-27T01:01:59.480Z,35.33
2018-05-27T01:04:27.734Z,35.40
2018-05-27T01:06:55.661Z,32.70
2018-05-27T01:09:23.602Z,36.50
2018-05-27T01:11:51.533Z,36.73
2018-05-27T01:14:19.449Z,38.40
2018-05-27T01:16:47.373Z,36.40
2018-05-27T01:19:15.302Z,34.17
2018-05-27T01:21:43.263Z,36.93
2018-05-27T01:24:11.347Z,35.67
2018-05-27T01:26:39.271Z,33.13
2018-05-27T01:29:07.185Z,34.57
2018-05-27T01:31:35.115Z,33.10
2018-05-27T01:34:03.062Z,35.50
2018-05-27T01:36:30.991Z,37.80
2018-05-27T01:38:58.906Z,32.33
2018-05-27T01:41:26.854Z,33.60
2018-05-27T01:43:54.763Z,34.73
2018-05-27T01:46:22.718Z,34.83
2018-05-27T01:48:50.623Z,38.60
2018-05-27T01:51:18.575Z,32.87
2018-05-27T01:53:46.509Z,32.40
2018-05-27T01:56:14.432Z,33.80
2018-05-27T01:58:42.382Z,33.20
2018-05-27T02:01:10.329Z,36.60
2018-05-27T02:03:38.254Z,33.13
2018-05-27T02:06:06.168Z,36.03
2018-05-27T02:08:34.121Z,33.20
2018-05-27T02:11:02.024Z,31.83
2018-05-27T02:13:30.685Z,33.03
2018-05-27T02:15:58.605Z,33.50
2018-05-27T02:18:26.527Z,33.13
2018-05-27T02:20:54.439Z,35.30
2018-05-27T02:23:22.385Z,33.67
2018-05-27T02:25:50.380Z,34.47
2018-05-27T02:28:18.667Z,36.50
2018-05-27T02:30:46.870Z,34.60
2018-05-27T02:33:14.851Z,33.57
2018-05-27T02:35:42.786Z,32.90
2018-05-27T02:38:11.513Z,35.80
2018-05-27T02:40:39.444Z,33.63
2018-05-27T02:43:07.349Z,33.70
2018-05-27T02:45:35.303Z,33.93
2018-05-27T02:48:03.232Z,32.53
2018-05-27T02:50:31.180Z,32.23
2018-05-27T02:52:59.093Z,35.07
2018-05-27T02:55:27.039Z,36.07
2018-05-27T02:57:54.989Z,34.30
2018-05-27T03:00:23.276Z,35.90
2018-05-27T03:02:51.186Z,36.20
2018-05-27T03:05:19.135Z,36.50
2018-05-27T03:07:47.105Z,34.97
2018-05-27T03:10:15.040Z,35.33
2018-05-27T03:12:42.967Z,35.23
2018-05-27T03:15:10.922Z,36.30
2018-05-27T03:17:38.835Z,32.93
2018-05-27T03:20:06.769Z,35.57
2018-05-27T03:22:34.693Z,34.67
2018-05-27T03:25:02.651Z,35.80
2018-05-27T03:27:30.569Z,33.03
2018-05-27T03:29:58.489Z,34.03
2018-05-27T03:32:26.404Z,31.17
2018-05-27T03:34:54.343Z,33.40
2018-05-27T03:37:22.277Z,34.03
2018-05-27T03:39:50.213Z,32.83
2018-05-27T03:42:18.131Z,33.43
2018-05-27T03:44:46.056Z,32.40
2018-05-27T03:47:13.980Z,32.77
2018-05-27T03:49:41.945Z,31.80
2018-05-27T03:52:09.876Z,33.80
2018-05-27T03:54:37.805Z,31.47
2018-05-27T03:57:05.733Z,32.07
2018-05-27T03:59:33.664Z,32.03
2018-05-27T04:02:01.593Z,31.60
2018-05-27T04:04:53.246Z,29.27
2018-05-27T04:07:32.900Z,27.83
2018-05-27T04:10:00.822Z,26.50
2018-05-27T04:12:28.875Z,25.37
2018-05-27T04:14:56.825Z,24.40
2018-05-27T04:17:24.778Z,27.60
2018-05-27T04:19:52.688Z,23.93
2018-05-27T04:22:20.632Z,26.03
2018-05-27T04:24:48.558Z,25.40
2018-05-27T04:27:16.506Z,26.03
2018-05-27T04:29:44.431Z,24.93
2018-05-27T04:32:12.354Z,24.93
2018-05-27T04:34:40.288Z,24.70
2018-05-27T04:37:09.193Z,25.83
2018-05-27T04:39:37.127Z,24.87
2018-05-27T04:42:05.050Z,24.33
2018-05-27T04:44:32.981Z,24.67
2018-05-27T04:47:00.912Z,23.80
2018-05-27T04:49:28.831Z,25.97
2018-05-27T04:51:56.781Z,22.83
2018-05-27T04:54:24.719Z,24.83
2018-05-27T04:56:52.659Z,25.90
2018-05-27T04:59:20.591Z,23.60
2018-05-27T05:01:48.501Z,25.40
2018-05-27T05:04:16.506Z,24.93
2018-05-27T05:06:44.449Z,24.80
2018-05-27T05:09:12.381Z,25.70
2018-05-27T05:11:40.291Z,25.50
2018-05-27T05:14:08.246Z,25.37
2018-05-27T05:16:36.181Z,27.23
2018-05-27T05:19:04.113Z,25.80
2018-05-27T05:21:32.048Z,24.17
2018-05-27T05:23:59.968Z,25.13
2018-05-27T05:26:27.909Z,25.73
2018-05-27T05:28:55.849Z,22.90
2018-05-27T05:31:23.780Z,23.23
2018-05-27T05:33:51.702Z,25.23
2018-05-27T05:36:19.711Z,24.53
2018-05-27T05:38:47.599Z,24.17
2018-05-27T05:41:15.508Z,24.20
2018-05-27T05:43:43.511Z,23.17
2018-05-27T05:46:11.389Z,23.00
2018-05-27T05:48:39.310Z,21.97
2018-05-27T05:51:07.247Z,22.23
2018-05-27T05:53:35.202Z,21.60
2018-05-27T05:56:03.121Z,22.70
2018-05-27T05:58:31.144Z,22.37
2018-05-27T06:00:59.082Z,20.40
2018-05-27T06:03:27.054Z,21.07
2018-05-27T06:05:55.365Z,21.80
2018-05-27T06:08:23.292Z,19.63
2018-05-27T06:10:51.211Z,22.57
2018-05-27T06:13:19.133Z,24.57
2018-05-27T06:15:47.055Z,24.87
2018-05-27T06:18:15.904Z,25.50
2018-05-27T06:20:43.819Z,22.30
2018-05-27T06:23:11.736Z,25.50
2018-05-27T06:25:39.684Z,22.80
2018-05-27T06:28:07.593Z,21.23
2018-05-27T06:30:35.565Z,21.73
2018-05-27T06:33:03.502Z,19.37
2018-05-27T06:35:31.423Z,21.90
2018-05-27T06:37:59.347Z,20.20
2018-05-27T06:40:27.265Z,18.53
2018-05-27T06:42:55.218Z,17.40
2018-05-27T06:45:23.160Z,17.43
2018-05-27T06:47:51.098Z,15.20
2018-05-27T06:50:19.065Z,14.47
2018-05-27T06:52:47.019Z,14.00
2018-05-27T06:55:14.958Z,14.30
2018-05-27T06:57:42.882Z,14.30
2018-05-27T07:00:11.264Z,15.27
2018-05-27T07:02:39.192Z,16.07
2018-05-27T07:05:07.124Z,14.73
2018-05-27T07:07:35.068Z,18.20
2018-05-27T07:10:03.039Z,16.00
2018-05-27T07:12:30.972Z,14.57
2018-05-27T07:14:58.935Z,17.03
2018-05-27T07:17:26.842Z,16.27
2018-05-27T07:19:54.816Z,16.50
2018-05-27T07:22:22.732Z,16.80
2018-05-27T07:24:50.653Z,15.57
2018-05-27T07:27:18.586Z,17.00
2018-05-27T07:29:46.546Z,16.70
2018-05-27T07:32:14.525Z,16.30
2018-05-27T07:34:42.417Z,16.70
2018-05-27T07:37:10.340Z,17.50
2018-05-27T07:39:38.284Z,16.20
2018-05-27T07:42:06.220Z,17.43
2018-05-27T07:44:34.140Z,16.10
2018-05-27T07:47:02.908Z,15.70
2018-05-27T07:49:30.830Z,16.10
2018-05-27T07:51:58.755Z,16.63
2018-05-27T07:54:26.706Z,16.80
2018-05-27T07:56:54.648Z,15.73
2018-05-27T07:59:22.580Z,15.60
2018-05-27T08:01:50.512Z,23.43
2018-05-27T08:04:18.437Z,21.37
2018-05-27T08:06:46.379Z,28.27
2018-05-27T08:09:14.329Z,55.70
2018-05-27T08:11:42.920Z,98.47
2018-05-27T08:14:10.906Z,72.63
2018-05-27T08:16:38.851Z,37.07
2018-05-27T08:19:06.798Z,50.67
2018-05-27T08:21:34.747Z,39.00
2018-05-27T08:24:02.678Z,25.13
2018-05-27T08:26:30.630Z,21.00
2018-05-27T08:28:58.554Z,26.43
2018-05-27T08:31:26.497Z,21.60
2018-05-27T08:33:54.442Z,18.40
2018-05-27T08:36:22.399Z,15.17
2018-05-27T08:38:50.308Z,13.87
2018-05-27T08:41:18.260Z,14.93
2018-05-27T08:43:46.175Z,14.57
2018-05-27T08:46:14.123Z,15.77
2018-05-27T08:48:42.050Z,13.03
2018-05-27T08:51:10.391Z,12.80
2018-05-27T08:53:38.637Z,143.90
2018-05-27T08:56:06.567Z,101.40
2018-05-27T08:58:34.578Z,109.93
2018-05-27T09:01:02.473Z,50.07
2018-05-27T09:03:30.515Z,54.13
2018-05-27T09:05:58.421Z,53.37
2018-05-27T09:08:26.348Z,82.10
2018-05-27T09:10:54.388Z,43.70
2018-05-27T09:13:22.324Z,28.50
2018-05-27T09:15:50.243Z,24.80
2018-05-27T09:18:18.186Z,19.77
2018-05-27T09:20:46.112Z,19.40
2018-05-27T09:23:14.049Z,16.10
2018-05-27T09:25:41.965Z,15.03
2018-05-27T09:28:09.911Z,13.87
2018-05-27T09:30:38.471Z,14.90
2018-05-27T09:33:06.981Z,14.57
2018-05-27T09:35:34.948Z,14.87
2018-05-27T09:38:02.883Z,14.40
2018-05-27T09:40:31.147Z,16.90
2018-05-27T09:42:59.084Z,15.33
2018-05-27T09:45:27.083Z,17.50
2018-05-27T09:47:54.970Z,14.30
2018-05-27T09:50:22.897Z,15.30
2018-05-27T09:52:50.831Z,15.23
2018-05-27T09:55:19.288Z,15.00
2018-05-27T09:57:47.216Z,14.60
2018-05-27T10:00:15.139Z,16.03
2018-05-27T10:02:43.080Z,15.87
2018-05-27T10:05:11.022Z,15.40
2018-05-27T10:07:38.960Z,14.60
2018-05-27T10:10:06.928Z,14.30
2018-05-27T10:12:34.885Z,14.70
2018-05-27T10:15:02.815Z,15.10
2018-05-27T10:17:30.794Z,13.93
2018-05-27T10:19:58.694Z,14.43
2018-05-27T10:22:26.620Z,13.40
2018-05-27T10:24:54.540Z,28.97
2018-05-27T10:27:22.499Z,61.87
2018-05-27T10:29:50.422Z,96.50
2018-05-27T10:32:18.371Z,73.23
2018-05-27T10:34:46.302Z,13.80
2018-05-27T10:37:14.237Z,24.17
2018-05-27T10:39:42.158Z,35.70
2018-05-27T10:42:10.109Z,98.77
2018-05-27T10:44:38.022Z,70.90
2018-05-27T10:47:05.995Z,27.47
2018-05-27T10:49:33.947Z,22.37
2018-05-27T10:52:01.938Z,25.63
2018-05-27T10:54:29.852Z,11.23
2018-05-27T10:56:57.796Z,23.03
2018-05-27T10:59:25.723Z,12.37
2018-05-27T11:01:53.657Z,10.80
2018-05-27T11:04:21.595Z,9.60
2018-05-27T11:06:49.515Z,10.10
2018-05-27T11:09:17.471Z,11.93
2018-05-27T11:11:45.401Z,10.30
2018-05-27T11:14:13.329Z,8.80
2018-05-27T11:16:41.281Z,8.07
2018-05-27T11:19:09.183Z,7.83
2018-05-27T11:21:37.091Z,7.77
2018-05-27T11:24:05.001Z,8.33
2018-05-27T11:26:32.936Z,7.73
2018-05-27T11:29:00.919Z,8.00
2018-05-27T11:31:28.831Z,8.53
2018-05-27T11:33:56.756Z,8.90
2018-05-27T11:36:24.715Z,8.27
2018-05-27T11:38:52.672Z,8.03
2018-05-27T11:41:20.634Z,8.40
2018-05-27T11:43:48.575Z,9.17
2018-05-27T11:46:16.488Z,9.90
2018-05-27T11:48:44.457Z,9.13
2018-05-27T11:51:12.382Z,14.70
2018-05-27T11:53:40.308Z,13.00
2018-05-27T11:56:08.234Z,16.47
2018-05-27T11:58:36.153Z,9.30
2018-05-27T12:01:04.082Z,9.73
2018-05-27T12:03:32.004Z,8.53
2018-05-27T12:05:59.908Z,9.63
2018-05-27T12:08:27.825Z,8.50
2018-05-27T12:10:55.730Z,9.37
2018-05-27T12:13:23.698Z,8.53
2018-05-27T12:15:51.613Z,7.20
2018-05-27T12:18:19.542Z,8.57
2018-05-27T12:20:47.539Z,9.43
2018-05-27T12:23:15.545Z,8.43
2018-05-27T12:25:43.484Z,9.17
2018-05-27T12:28:11.486Z,9.43
2018-05-27T12:30:39.400Z,8.80
2018-05-27T12:33:07.360Z,9.17
2018-05-27T12:35:35.315Z,14.17
2018-05-27T12:38:03.263Z,35.90
2018-05-27T12:40:31.188Z,38.53
2018-05-27T12:42:59.107Z,23.57
2018-05-27T12:45:27.054Z,101.07
2018-05-27T12:47:54.985Z,71.30
2018-05-27T12:50:22.956Z,18.67
2018-05-27T12:52:50.913Z,21.70
2018-05-27T12:55:18.836Z,10.77
2018-05-27T12:57:46.769Z,24.83
2018-05-27T13:00:14.699Z,15.93
2018-05-27T13:02:42.641Z,12.47
2018-05-27T13:05:10.596Z,33.53
2018-05-27T13:07:38.540Z,12.47
2018-05-27T13:10:06.491Z,12.70
2018-05-27T13:12:34.420Z,21.43
2018-05-27T13:15:02.384Z,10.67
2018-05-27T13:17:30.301Z,12.57
2018-05-27T13:19:58.225Z,10.93
2018-05-27T13:22:26.207Z,12.80
2018-05-27T13:24:54.138Z,11.53
2018-05-27T13:27:22.079Z,11.60
2018-05-27T13:29:49.989Z,10.40
2018-05-27T13:32:17.968Z,9.20
2018-05-27T13:34:45.890Z,10.10
2018-05-27T13:37:13.808Z,8.80
2018-05-27T13:39:41.739Z,9.83
2018-05-27T13:42:09.665Z,12.20
2018-05-27T13:44:37.637Z,9.20
2018-05-27T13:47:05.609Z,9.53
2018-05-27T13:49:33.559Z,8.67
2018-05-27T13:52:01.468Z,8.70
2018-05-27T13:54:29.385Z,8.90
2018-05-27T13:56:57.340Z,8.47
2018-05-27T13:59:25.251Z,7.73
2018-05-27T14:01:53.217Z,8.80
2018-05-27T14:04:21.130Z,8.03
2018-05-27T14:06:49.048Z,8.17
2018-05-27T14:09:17.004Z,7.97
2018-05-27T14:11:44.944Z,9.40
2018-05-27T14:14:12.891Z,9.57
2018-05-27T14:16:40.799Z,7.47
2018-05-27T14:19:08.746Z,8.07
2018-05-27T14:21:36.676Z,8.10
2018-05-27T14:24:04.618Z,8.13
2018-05-27T14:26:32.552Z,7.87
2018-05-27T14:29:00.472Z,7.30
2018-05-27T14:31:28.465Z,8.67
2018-05-27T14:33:56.440Z,8.93
2018-05-27T14:36:24.396Z,8.57
2018-05-27T14:38:52.477Z,28.40
2018-05-27T14:41:20.404Z,15.90
2018-05-27T14:43:48.384Z,14.23
2018-05-27T14:46:16.343Z,22.30
2018-05-27T14:48:44.283Z,18.03
2018-05-27T14:51:12.237Z,11.20
2018-05-27T14:53:40.181Z,17.57
2018-05-27T14:56:08.101Z,20.67
2018-05-27T14:58:36.118Z,14.07
2018-05-27T15:01:04.029Z,14.57
2018-05-27T15:03:32.035Z,18.40
2018-05-27T15:05:59.954Z,9.40
2018-05-27T15:08:27.874Z,11.80
2018-05-27T15:10:55.808Z,17.00
2018-05-27T15:13:23.848Z,16.97
2018-05-27T15:15:51.811Z,14.60
2018-05-27T15:18:19.794Z,13.50
2018-05-27T15:20:47.826Z,14.60
2018-05-27T15:23:15.788Z,16.93
2018-05-27T15:25:43.705Z,9.80
2018-05-27T15:28:11.703Z,8.90
2018-05-27T15:30:39.607Z,9.20
2018-05-27T15:33:07.544Z,9.80
2018-05-27T15:35:35.459Z,10.00
2018-05-27T15:38:03.400Z,15.73
2018-05-27T15:40:31.311Z,21.70
2018-05-27T15:42:59.265Z,13.80
2018-05-27T15:45:27.690Z,20.90
2018-05-27T15:47:55.604Z,10.63
2018-05-27T15:50:23.531Z,11.10
2018-05-27T15:52:51.457Z,13.80
2018-05-27T15:55:19.437Z,13.60
2018-05-27T15:57:47.389Z,10.97
2018-05-27T16:00:15.317Z,13.63
2018-05-27T16:02:43.252Z,12.70
2018-05-27T16:05:11.195Z,12.53
2018-05-27T16:07:39.122Z,13.60
2018-05-27T16:10:07.938Z,11.80
2018-05-27T16:12:35.882Z,13.63
2018-05-27T16:15:03.874Z,15.57
2018-05-27T16:17:31.874Z,19.40
2018-05-27T16:19:59.785Z,28.37
2018-05-27T16:22:27.704Z,17.63
2018-05-27T16:24:55.659Z,29.37
2018-05-27T16:27:23.645Z,15.13
2018-05-27T16:29:52.469Z,21.33
2018-05-27T16:32:20.398Z,34.23
2018-05-27T16:34:48.362Z,27.67
2018-05-27T16:37:16.292Z,15.57
2018-05-27T16:39:44.254Z,24.20
2018-05-27T16:42:12.213Z,19.33
2018-05-27T16:44:40.151Z,31.57
2018-05-27T16:47:08.086Z,22.00
2018-05-27T16:49:36.026Z,17.33
2018-05-27T16:52:03.972Z,11.40
2018-05-27T16:54:31.941Z,15.20
2018-05-27T16:56:59.876Z,13.90
2018-05-27T16:59:27.812Z,11.50
2018-05-27T17:01:55.820Z,10.40
2018-05-27T17:04:23.767Z,12.43
2018-05-27T17:06:51.704Z,11.93
2018-05-27T17:09:19.659Z,10.80
2018-05-27T17:11:47.651Z,11.50
2018-05-27T17:14:15.606Z,11.77
2018-05-27T17:16:43.660Z,11.53
2018-05-27T17:19:11.555Z,11.80
2018-05-27T17:21:39.477Z,10.83
2018-05-27T17:24:07.400Z,13.00
2018-05-27T17:26:35.354Z,11.63
2018-05-27T17:29:03.290Z,12.30
2018-05-27T17:31:31.241Z,12.63
2018-05-27T17:33:59.215Z,12.63
2018-05-27T17:36:27.121Z,12.00
2018-05-27T17:38:55.090Z,12.07
2018-05-27T17:41:23.018Z,12.27
2018-05-27T17:43:50.981Z,13.23
2018-05-27T17:46:18.889Z,12.90
2018-05-27T17:48:46.859Z,13.00
2018-05-27T17:51:14.775Z,13.87
2018-05-27T17:53:42.728Z,14.27
2018-05-27T17:56:10.648Z,13.73
2018-05-27T17:58:39.731Z,14.33
2018-05-27T18:01:07.649Z,257.63
2018-05-27T18:03:35.602Z,130.70
2018-05-27T18:06:03.511Z,201.80
2018-05-27T18:08:32.336Z,50.57
2018-05-27T18:11:00.246Z,22.30
2018-05-27T18:13:28.228Z,16.17
2018-05-27T18:15:56.160Z,17.13
2018-05-27T18:18:24.101Z,21.70
2018-05-27T18:20:52.020Z,20.43
2018-05-27T18:23:19.960Z,18.50
2018-05-27T18:25:47.888Z,22.13
2018-05-27T18:28:15.817Z,18.83
2018-05-27T18:30:43.734Z,20.33
2018-05-27T18:33:11.691Z,19.50
2018-05-27T18:35:39.738Z,23.17
2018-05-27T18:38:07.703Z,16.50
2018-05-27T18:40:35.599Z,18.63
2018-05-27T18:43:03.584Z,24.23
2018-05-27T18:45:31.518Z,104.07
2018-05-27T18:47:59.570Z,37.53
2018-05-27T18:50:27.500Z,29.07
2018-05-27T18:52:55.416Z,32.87
2018-05-27T18:55:23.332Z,31.40
2018-05-27T18:57:51.263Z,25.83
2018-05-27T19:00:19.196Z,32.40
2018-05-27T19:02:47.104Z,24.20
2018-05-27T19:05:15.176Z,22.33
2018-05-27T19:07:43.145Z,31.00
2018-05-27T19:10:11.060Z,25.00
2018-05-27T19:12:38.969Z,22.63
2018-05-27T19:15:06.893Z,25.77
2018-05-27T19:17:34.837Z,24.10
2018-05-27T19:20:02.823Z,24.83
2018-05-27T19:22:30.777Z,23.30
2018-05-27T19:24:59.548Z,24.10
2018-05-27T19:27:28.326Z,21.90
2018-05-27T19:29:56.241Z,22.00
2018-05-27T19:32:24.200Z,22.40
2018-05-27T19:34:52.145Z,24.67
2018-05-27T19:37:20.063Z,23.93
2018-05-27T19:39:48.021Z,27.63
2018-05-27T19:42:16.514Z,25.43
2018-05-27T19:44:44.481Z,23.93
2018-05-27T19:47:12.643Z,25.67
2018-05-27T19:49:40.576Z,23.70
2018-05-27T19:52:08.491Z,23.80
2018-05-27T19:54:36.610Z,23.57
2018-05-27T19:57:04.517Z,23.60
2018-05-27T19:59:32.457Z,23.77
2018-05-27T20:02:00.372Z,21.53
2018-05-27T20:04:28.458Z,22.60
2018-05-27T20:06:56.384Z,22.00
2018-05-27T20:09:24.302Z,22.20
2018-05-27T20:11:52.265Z,20.67
2018-05-27T20:14:20.179Z,21.20
2018-05-27T20:16:48.128Z,21.27
2018-05-27T20:19:16.043Z,20.73
2018-05-27T20:21:44.013Z,20.03
2018-05-27T20:24:11.928Z,19.37
2018-05-27T20:26:39.865Z,22.23
2018-05-27T20:29:07.808Z,19.53
2018-05-27T20:31:35.766Z,27.33
2018-05-27T20:34:03.712Z,19.47
2018-05-27T20:36:32.395Z,19.77
2018-05-27T20:39:00.303Z,18.30
2018-05-27T20:41:28.261Z,18.07
2018-05-27T20:43:56.236Z,21.17
2018-05-27T20:46:24.245Z,17.40
2018-05-27T20:48:52.166Z,17.50
2018-05-27T20:51:20.184Z,18.33
2018-05-27T20:53:48.127Z,18.10
2018-05-27T20:56:16.039Z,19.90
2018-05-27T20:58:43.974Z,20.60
2018-05-27T21:01:12.494Z,19.30
2018-05-27T21:03:40.445Z,18.20
2018-05-27T21:06:08.373Z,16.17
2018-05-27T21:08:36.294Z,16.00
2018-05-27T21:11:04.213Z,15.33
2018-05-27T21:13:32.143Z,14.47
2018-05-27T21:16:00.100Z,13.43
2018-05-27T21:18:28.034Z,13.17
2018-05-27T21:20:55.989Z,14.03
2018-05-27T21:23:23.920Z,13.80
2018-05-27T21:25:51.887Z,17.27
2018-05-27T21:28:19.800Z,17.17
2018-05-27T21:30:47.714Z,14.63
2018-05-27T21:33:15.921Z,29.70
2018-05-27T21:35:43.828Z,16.53
2018-05-27T21:38:11.758Z,31.33
2018-05-27T21:40:39.782Z,57.80
2018-05-27T21:43:07.721Z,37.13
2018-05-27T21:45:35.634Z,33.80
2018-05-27T21:48:03.608Z,29.97
2018-05-27T21:50:31.520Z,15.80
2018-05-27T21:52:59.450Z,10.20
2018-05-27T21:55:27.375Z,10.47
2018-05-27T21:57:55.316Z,9.23
2018-05-27T22:00:23.206Z,7.80
2018-05-27T22:02:51.129Z,8.33
2018-05-27T22:05:19.053Z,8.53
2018-05-27T22:07:47.037Z,7.87
2018-05-27T22:10:14.933Z,7.63
2018-05-27T22:12:42.867Z,7.43
2018-05-27T22:15:10.795Z,6.77
2018-05-27T22:17:39.053Z,8.20
2018-05-27T22:20:06.952Z,7.87
2018-05-27T22:22:34.880Z,6.93
2018-05-27T22:25:02.808Z,11.13
2018-05-27T22:27:30.721Z,6.77
2018-05-27T22:29:58.655Z,7.70
2018-05-27T22:32:26.549Z,7.93
2018-05-27T22:34:54.516Z,6.70
2018-05-27T22:37:22.414Z,6.70
2018-05-27T22:39:50.325Z,7.53
2018-05-27T22:42:18.252Z,7.00
2018-05-27T22:44:46.168Z,6.97
2018-05-27T22:47:14.097Z,6.70
2018-05-27T22:49:42.027Z,7.30
2018-05-27T22:52:09.948Z,8.60
2018-05-27T22:54:37.868Z,6.57
2018-05-27T22:57:05.773Z,6.80
2018-05-27T22:59:33.758Z,6.80
2018-05-27T23:02:01.877Z,6.57
2018-05-27T23:04:29.818Z,7.73
2018-05-27T23:06:57.723Z,7.43
2018-05-27T23:09:25.640Z,7.20
2018-05-27T23:11:53.568Z,8.03
2018-05-27T23:14:21.484Z,8.90
2018-05-27T23:16:49.476Z,8.63
2018-05-27T23:19:17.367Z,7.23
2018-05-27T23:21:45.294Z,8.53
2018-05-27T23:24:13.216Z,8.37
2018-05-27T23:26:41.123Z,7.77
2018-05-27T23:29:09.053Z,8.00
2018-05-27T23:31:36.961Z,8.80
2018-05-27T23:34:04.881Z,8.77
2018-05-27T23:36:32.848Z,9.40
2018-05-27T23:39:00.771Z,8.57
2018-05-27T23:41:28.697Z,8.43
2018-05-27T23:43:56.604Z,9.50
2018-05-27T23:46:24.511Z,9.90
2018-05-27T23:48:52.441Z,9.37
2018-05-27T23:51:20.360Z,8.27
2018-05-27T23:53:48.299Z,8.80
2018-05-27T23:56:16.236Z,9.03
2018-05-27T23:58:44.168Z,8.80
